Time;durP1;ratioP1;P1;durP2;ratioP2;P2;SDS_P1;SDS_P2;PMS_P1;PMS_P2;Temp;Humidity;BMP_temperature;BMP_pressure;BME280_temperature;BME280_humidity;BME280_pressure;Samples;Min_cycle;Max_cycle;Signal;HPM_P1;HPM_P2
2021/04/24 00:00:10;;;;;;;0.23;0.23;;;7.40;99.90;;;;;;5106189;28;20269;-82
2021/04/24 00:02:43;;;;;;;0.10;0.10;;;7.50;99.90;;;;;;5092238;28;20209;-84
2021/04/24 00:05:21;;;;;;;0.43;0.40;;;7.40;99.90;;;;;;5109191;28;20231;-83
2021/04/24 00:07:47;;;;;;;0.23;0.23;;;7.40;99.90;;;;;;5092274;28;20240;-82
2021/04/24 00:10:15;;;;;;;0.10;0.10;;;7.40;99.90;;;;;;5101002;28;20213;-83
2021/04/24 00:12:42;;;;;;;0.53;0.53;;;7.40;99.90;;;;;;5105227;27;20274;-83
2021/04/24 00:15:10;;;;;;;0.20;0.20;;;7.30;99.90;;;;;;5097659;28;20186;-82
2021/04/24 00:17:35;;;;;;;2.77;0.37;;;7.30;99.90;;;;;;5101689;28;20187;-82
2021/04/24 00:20:01;;;;;;;0.37;0.37;;;7.30;99.90;;;;;;5105478;28;20255;-83
2021/04/24 00:22:27;;;;;;;0.10;0.10;;;7.40;99.90;;;;;;5103590;28;20192;-83
2021/04/24 00:24:53;;;;;;;1.07;0.80;;;7.40;99.90;;;;;;5103509;28;20669;-83
2021/04/24 00:27:18;;;;;;;0.40;0.30;;;7.40;99.90;;;;;;5110346;28;20212;-83
2021/04/24 00:29:44;;;;;;;0.10;0.10;;;7.40;99.90;;;;;;5108495;27;20242;-83
2021/04/24 00:32:09;;;;;;;0.10;0.10;;;7.40;99.90;;;;;;5103102;28;20212;-83
2021/04/24 00:34:35;;;;;;;0.50;0.50;;;7.40;99.90;;;;;;5093703;28;20656;-84
2021/04/24 00:37:00;;;;;;;0.43;0.43;;;7.40;99.90;;;;;;5093458;28;20177;-83
2021/04/24 00:39:26;;;;;;;0.10;0.10;;;7.40;99.90;;;;;;5098363;28;20646;-83
2021/04/24 00:41:52;;;;;;;0.27;0.20;;;7.30;99.90;;;;;;5101879;28;20672;-82
2021/04/24 00:44:44;;;;;;;0.60;0.20;;;7.20;99.90;;;;;;5109152;28;20558;-84
2021/04/24 00:47:09;;;;;;;0.10;0.10;;;7.20;99.90;;;;;;5110977;28;20175;-83
2021/04/24 00:49:35;;;;;;;0.40;0.40;;;7.10;99.90;;;;;;5107276;28;20698;-82
2021/04/24 00:52:00;;;;;;;0.40;0.40;;;7.10;99.90;;;;;;5095008;28;20252;-83
2021/04/24 00:54:26;;;;;;;0.33;0.33;;;7.20;99.90;;;;;;5095738;28;20191;-84
2021/04/24 00:56:51;;;;;;;0.23;0.20;;;7.10;99.90;;;;;;5099549;28;20214;-83
2021/04/24 00:59:17;;;;;;;0.43;0.30;;;7.10;99.90;;;;;;5108732;28;20237;-83
2021/04/24 01:01:43;;;;;;;0.47;0.47;;;7.10;99.90;;;;;;5109694;28;20696;-84
2021/04/24 01:04:09;;;;;;;0.20;0.20;;;7.20;99.90;;;;;;5103865;28;20201;-83
2021/04/24 01:06:34;;;;;;;0.17;0.17;;;7.30;99.90;;;;;;5107738;28;20191;-83
2021/04/24 01:09:00;;;;;;;0.20;0.20;;;7.10;99.90;;;;;;5096530;28;20186;-83
2021/04/24 01:11:25;;;;;;;0.33;0.33;;;7.20;99.90;;;;;;5096303;28;20212;-82
2021/04/24 01:13:51;;;;;;;0.90;0.50;;;7.00;99.90;;;;;;5110622;28;20175;-83
2021/04/24 01:16:16;;;;;;;0.17;0.13;;;7.10;99.90;;;;;;5100116;28;20243;-83
2021/04/24 01:18:42;;;;;;;0.57;0.57;;;7.00;99.90;;;;;;5101851;28;20230;-83
2021/04/24 01:21:08;;;;;;;0.40;0.20;;;7.10;99.90;;;;;;5096048;28;20247;-86
2021/04/24 01:23:34;;;;;;;0.20;0.20;;;7.00;99.90;;;;;;5115087;27;20202;-83
2021/04/24 01:26:09;;;;;;;0.23;0.23;;;7.00;99.90;;;;;;5107812;27;20217;-83
2021/04/24 01:28:34;;;;;;;0.83;0.83;;;7.10;99.90;;;;;;5113751;27;20171;-82
2021/04/24 01:31:00;;;;;;;0.17;0.17;;;6.90;99.90;;;;;;5107157;28;20257;-83
2021/04/24 01:33:26;;;;;;;0.77;0.37;;;6.90;99.90;;;;;;5101763;28;20539;-82
2021/04/24 01:35:52;;;;;;;0.13;0.13;;;6.80;99.90;;;;;;5098530;28;20180;-82
2021/04/24 01:38:18;;;;;;;0.30;0.30;;;6.80;99.90;;;;;;5096444;28;20199;-83
2021/04/24 01:40:44;;;;;;;0.10;0.10;;;6.70;99.90;;;;;;5121078;27;20201;-83
2021/04/24 01:43:10;;;;;;;0.33;0.33;;;6.80;99.90;;;;;;5107393;28;20247;-83
2021/04/24 01:45:36;;;;;;;0.10;0.10;;;6.80;99.90;;;;;;5098794;27;20221;-83
2021/04/24 01:48:05;;;;;;;0.17;0.17;;;6.80;99.90;;;;;;5103607;28;20207;-83
2021/04/24 01:50:40;;;;;;;0.10;0.10;;;6.60;99.90;;;;;;5103877;28;20284;-82
2021/04/24 01:53:07;;;;;;;0.40;0.40;;;6.60;99.90;;;;;;5101151;28;20191;-82
2021/04/24 01:55:35;;;;;;;0.33;0.33;;;6.60;99.90;;;;;;5099516;28;20208;-82
2021/04/24 01:58:05;;;;;;;0.30;0.30;;;6.50;99.90;;;;;;5115427;28;20191;-83
2021/04/24 02:00:40;;;;;;;0.10;0.10;;;6.30;99.90;;;;;;5095923;28;20215;-79
2021/04/24 02:03:09;;;;;;;0.10;0.10;;;6.40;99.90;;;;;;5094390;28;20188;-79
2021/04/24 02:05:36;;;;;;;2.63;0.50;;;6.40;99.90;;;;;;5094661;28;20204;-80
2021/04/24 02:08:06;;;;;;;0.20;0.20;;;6.30;99.90;;;;;;5094028;28;20674;-80
2021/04/24 02:10:32;;;;;;;0.30;0.30;;;6.20;99.90;;;;;;5099620;27;20200;-83
2021/04/24 02:13:00;;;;;;;0.20;0.10;;;6.30;99.90;;;;;;5106615;28;20662;-82
2021/04/24 02:15:25;;;;;;;2.13;0.27;;;6.40;99.90;;;;;;5102490;28;20189;-83
2021/04/24 02:17:51;;;;;;;0.10;0.10;;;6.40;99.90;;;;;;5113087;28;20554;-80
2021/04/24 02:20:18;;;;;;;0.47;0.47;;;6.50;99.90;;;;;;5100441;28;20223;-80
2021/04/24 02:22:44;;;;;;;0.13;0.13;;;6.50;99.90;;;;;;5093932;28;20522;-79
2021/04/24 02:25:14;;;;;;;0.20;0.20;;;6.50;99.90;;;;;;5102007;28;20218;-80
2021/04/24 02:27:40;;;;;;;0.30;0.30;;;6.40;99.90;;;;;;5115285;27;20190;-80
2021/04/24 02:30:09;;;;;;;0.30;0.20;;;6.40;99.90;;;;;;5098589;28;20197;-80
2021/04/24 02:32:35;;;;;;;0.40;0.40;;;6.50;99.90;;;;;;5094447;28;20188;-79
2021/04/24 02:35:01;;;;;;;0.40;0.40;;;6.40;99.90;;;;;;5100491;28;20195;-77
2021/04/24 02:37:27;;;;;;;0.83;0.53;;;6.50;99.90;;;;;;5096396;28;20185;-78
2021/04/24 02:39:53;;;;;;;0.10;0.10;;;6.50;99.90;;;;;;5103256;28;20210;-79
2021/04/24 02:42:21;;;;;;;0.10;0.10;;;6.60;99.90;;;;;;5095834;28;20867;-80
2021/04/24 02:44:48;;;;;;;0.20;0.20;;;6.60;99.90;;;;;;5100946;28;20215;-80
2021/04/24 02:47:14;;;;;;;0.10;0.10;;;6.60;99.90;;;;;;5097014;28;20264;-80
2021/04/24 02:49:40;;;;;;;0.50;0.50;;;6.60;99.90;;;;;;5106599;28;20627;-79
2021/04/24 02:52:06;;;;;;;0.50;0.50;;;6.60;99.90;;;;;;5091931;28;20686;-79
2021/04/24 02:54:32;;;;;;;0.23;0.23;;;6.50;99.90;;;;;;5100737;28;20180;-80
2021/04/24 02:56:58;;;;;;;0.20;0.20;;;6.60;99.90;;;;;;5104505;28;20187;-79
2021/04/24 02:59:24;;;;;;;0.00;0.00;;;6.60;99.90;;;;;;5107280;27;20179;-79
2021/04/24 03:01:50;;;;;;;0.33;0.33;;;6.60;99.90;;;;;;5111632;27;20557;-80
2021/04/24 03:04:16;;;;;;;0.20;0.20;;;6.60;99.90;;;;;;5103893;28;20192;-78
2021/04/24 03:06:42;;;;;;;0.53;0.53;;;6.70;99.90;;;;;;5097961;28;20188;-80
2021/04/24 03:09:08;;;;;;;0.30;0.30;;;6.80;99.90;;;;;;5097918;28;20265;-79
2021/04/24 03:11:35;;;;;;;0.27;0.27;;;6.80;99.90;;;;;;5110555;27;20227;-80
2021/04/24 03:14:01;;;;;;;3.67;0.90;;;6.80;99.90;;;;;;5096200;28;20188;-80
2021/04/24 03:16:26;;;;;;;0.73;0.60;;;6.70;99.90;;;;;;5108819;28;20202;-79
2021/04/24 03:18:55;;;;;;;0.87;0.87;;;6.70;99.90;;;;;;5096152;28;20192;-79
2021/04/24 03:21:22;;;;;;;0.10;0.10;;;6.70;99.90;;;;;;5102489;28;20292;-79
2021/04/24 03:23:48;;;;;;;0.10;0.10;;;6.60;99.90;;;;;;5103691;28;20188;-80
2021/04/24 03:26:15;;;;;;;0.40;0.40;;;6.80;99.90;;;;;;5103597;28;20215;-80
2021/04/24 03:28:41;;;;;;;0.77;0.57;;;6.80;99.90;;;;;;5107084;27;20675;-80
2021/04/24 03:31:07;;;;;;;0.30;0.30;;;6.80;99.90;;;;;;5092257;28;20212;-79
2021/04/24 03:33:33;;;;;;;0.40;0.40;;;6.70;99.90;;;;;;5092248;28;20744;-80
2021/04/24 03:35:58;;;;;;;0.10;0.10;;;6.70;99.90;;;;;;5109512;28;20189;-80
2021/04/24 03:38:24;;;;;;;0.27;0.23;;;6.70;99.90;;;;;;5101408;28;20186;-80
2021/04/24 03:40:49;;;;;;;2.17;0.93;;;6.70;99.90;;;;;;5092176;28;20217;-80
2021/04/24 03:43:15;;;;;;;4.80;1.03;;;6.70;99.90;;;;;;5093183;28;20190;-79
2021/04/24 03:45:41;;;;;;;1.03;0.23;;;6.60;99.90;;;;;;5092436;28;20740;-79
2021/04/24 03:48:07;;;;;;;0.40;0.40;;;6.50;99.90;;;;;;5099727;28;20191;-80
2021/04/24 03:50:33;;;;;;;0.20;0.10;;;6.50;99.90;;;;;;5095634;28;20203;-80
2021/04/24 03:52:58;;;;;;;0.30;0.30;;;6.50;99.90;;;;;;5107927;28;20644;-80
2021/04/24 03:55:25;;;;;;;0.13;0.07;;;6.50;99.90;;;;;;5112098;28;20237;-79
2021/04/24 03:57:54;;;;;;;0.40;0.20;;;6.50;99.90;;;;;;5105643;28;20184;-80
2021/04/24 04:00:21;;;;;;;0.10;0.10;;;6.40;99.90;;;;;;5091775;28;20226;-80
2021/04/24 04:02:55;;;;;;;0.33;0.07;;;6.50;99.90;;;;;;5095405;27;20197;-80
2021/04/24 04:05:21;;;;;;;1.20;0.77;;;6.50;99.90;;;;;;5114329;27;20205;-80
2021/04/24 04:07:47;;;;;;;0.27;0.27;;;6.50;99.90;;;;;;5121237;27;20173;-80
2021/04/24 04:10:15;;;;;;;0.67;0.67;;;6.60;99.90;;;;;;5102452;27;20216;-79
2021/04/24 04:12:41;;;;;;;0.30;0.30;;;6.60;99.90;;;;;;5116749;28;20268;-80
2021/04/24 04:15:08;;;;;;;0.27;0.27;;;6.70;99.90;;;;;;5097590;27;20180;-80
2021/04/24 04:17:34;;;;;;;0.30;0.30;;;6.70;99.90;;;;;;5096570;28;20222;-80
2021/04/24 04:20:00;;;;;;;0.13;0.13;;;6.70;99.90;;;;;;5099488;28;20558;-79
2021/04/24 04:22:26;;;;;;;1.43;1.33;;;6.70;99.90;;;;;;5116772;28;20275;-80
2021/04/24 04:24:51;;;;;;;0.20;0.20;;;6.70;99.90;;;;;;5117179;28;20203;-80
2021/04/24 04:27:17;;;;;;;0.00;0.00;;;6.70;99.90;;;;;;5111253;27;20179;-80
2021/04/24 04:29:43;;;;;;;1.20;0.30;;;6.70;99.90;;;;;;5102912;27;20180;-80
2021/04/24 04:32:08;;;;;;;0.23;0.20;;;6.80;99.90;;;;;;5109055;27;20236;-80
2021/04/24 04:34:34;;;;;;;0.83;0.60;;;6.80;99.90;;;;;;5120421;27;20191;-79
2021/04/24 04:37:00;;;;;;;0.10;0.10;;;6.80;99.90;;;;;;5094078;27;20277;-83
2021/04/24 04:39:26;;;;;;;0.77;0.40;;;6.90;99.90;;;;;;5101101;28;20346;-80
2021/04/24 04:41:51;;;;;;;0.40;0.40;;;7.00;99.90;;;;;;5098192;28;20202;-80
2021/04/24 04:44:17;;;;;;;0.10;0.10;;;6.90;99.90;;;;;;5095154;28;20188;-80
2021/04/24 04:46:42;;;;;;;0.07;0.07;;;6.90;99.90;;;;;;5106688;28;20225;-80
2021/04/24 04:49:08;;;;;;;0.70;0.37;;;6.90;99.90;;;;;;5098061;28;20187;-80
2021/04/24 04:51:34;;;;;;;0.40;0.40;;;7.00;99.90;;;;;;5100568;28;20732;-80
2021/04/24 04:53:59;;;;;;;0.10;0.10;;;7.10;99.90;;;;;;5095693;28;20197;-79
2021/04/24 04:56:25;;;;;;;0.30;0.30;;;7.20;99.90;;;;;;5098897;28;20188;-80
2021/04/24 04:58:51;;;;;;;0.10;0.10;;;7.10;99.90;;;;;;5098778;28;20179;-80
2021/04/24 05:01:18;;;;;;;0.33;0.33;;;7.00;99.90;;;;;;5104980;27;20210;-80
2021/04/24 05:03:44;;;;;;;0.77;0.23;;;7.00;99.90;;;;;;5097059;27;20681;-80
2021/04/24 05:06:09;;;;;;;0.40;0.30;;;6.90;99.90;;;;;;5093211;28;20249;-79
2021/04/24 05:08:36;;;;;;;0.40;0.40;;;6.90;99.90;;;;;;5098599;28;20190;-80
2021/04/24 05:11:03;;;;;;;0.30;0.17;;;6.90;99.90;;;;;;5103591;27;20856;-80
2021/04/24 05:13:28;;;;;;;0.40;0.40;;;7.10;99.90;;;;;;5105689;27;20191;-80
2021/04/24 05:15:54;;;;;;;0.50;0.50;;;7.10;99.90;;;;;;5108515;27;20190;-79
2021/04/24 05:18:21;;;;;;;1.27;0.40;;;7.20;99.90;;;;;;5102602;28;20200;-80
2021/04/24 05:20:46;;;;;;;0.10;0.10;;;7.30;99.90;;;;;;5103469;28;21828;-82
2021/04/24 05:23:12;;;;;;;0.20;0.20;;;7.30;99.90;;;;;;5092545;28;20196;-83
2021/04/24 05:25:38;;;;;;;0.53;0.33;;;7.40;99.90;;;;;;5095410;28;20238;-84
2021/04/24 05:28:03;;;;;;;0.30;0.30;;;7.60;99.90;;;;;;5110267;27;20648;-83
2021/04/24 05:30:29;;;;;;;0.83;0.80;;;7.70;99.90;;;;;;5101834;28;20337;-80
2021/04/24 05:32:57;;;;;;;0.40;0.40;;;7.80;99.90;;;;;;5106798;27;20204;-79
2021/04/24 05:35:23;;;;;;;0.13;0.10;;;7.90;99.90;;;;;;5112829;27;20185;-79
2021/04/24 05:37:48;;;;;;;0.20;0.20;;;8.10;99.90;;;;;;5116941;27;20190;-80
2021/04/24 05:40:15;;;;;;;0.33;0.33;;;8.30;99.90;;;;;;5100454;28;20200;-79
2021/04/24 05:42:41;;;;;;;0.43;0.43;;;8.40;99.90;;;;;;5096112;28;20269;-80
2021/04/24 05:45:12;;;;;;;1.27;1.17;;;8.50;99.90;;;;;;5101552;28;20212;-80
2021/04/24 05:47:46;;;;;;;0.23;0.23;;;8.50;99.90;;;;;;5109213;28;20184;-83
2021/04/24 05:50:15;;;;;;;0.20;0.20;;;8.60;99.90;;;;;;5098253;28;20574;-82
2021/04/24 05:52:41;;;;;;;1.03;0.60;;;8.60;99.90;;;;;;5109901;28;20589;-83
2021/04/24 05:55:07;;;;;;;0.63;0.63;;;8.60;99.90;;;;;;5111025;27;21710;-80
2021/04/24 05:57:34;;;;;;;0.13;0.13;;;8.80;99.90;;;;;;5101236;28;20233;-79
2021/04/24 06:00:00;;;;;;;0.60;0.60;;;9.00;99.90;;;;;;5099160;28;20216;-82
2021/04/24 06:02:26;;;;;;;0.50;0.50;;;9.00;99.90;;;;;;5101852;27;20190;-82
2021/04/24 06:04:52;;;;;;;0.50;0.50;;;9.20;99.90;;;;;;5103126;27;20209;-83
2021/04/24 06:07:17;;;;;;;0.87;0.53;;;9.30;99.90;;;;;;5108004;28;20182;-83
2021/04/24 06:09:43;;;;;;;0.03;0.03;;;9.60;99.90;;;;;;5100007;28;20186;-82
2021/04/24 06:12:09;;;;;;;0.53;0.43;;;9.60;99.90;;;;;;5107535;27;20186;-82
2021/04/24 06:14:35;;;;;;;0.93;0.60;;;9.80;99.90;;;;;;5103023;28;20290;-82
2021/04/24 06:17:01;;;;;;;0.47;0.47;;;10.20;99.90;;;;;;5101147;28;20559;-82
2021/04/24 06:19:27;;;;;;;0.50;0.50;;;10.00;99.90;;;;;;5103576;28;20785;-83
2021/04/24 06:21:53;;;;;;;0.70;0.47;;;10.30;99.90;;;;;;5103743;28;20197;-82
2021/04/24 06:24:19;;;;;;;0.77;0.77;;;10.30;99.90;;;;;;5102086;28;20188;-83
2021/04/24 06:26:45;;;;;;;6.07;0.53;;;10.40;99.90;;;;;;5107513;27;20238;-82
2021/04/24 06:29:10;;;;;;;2.80;0.73;;;10.40;99.90;;;;;;5107920;27;20602;-82
2021/04/24 06:31:36;;;;;;;0.30;0.30;;;10.80;99.90;;;;;;5102541;28;20232;-80
2021/04/24 06:34:01;;;;;;;0.73;0.73;;;11.00;99.90;;;;;;5099961;28;20192;-81
2021/04/24 06:36:27;;;;;;;2.37;0.77;;;10.80;99.90;;;;;;5098991;28;20181;-80
2021/04/24 06:38:54;;;;;;;5.07;0.47;;;10.90;99.90;;;;;;5105555;28;20180;-79
2021/04/24 06:41:20;;;;;;;0.30;0.30;;;11.30;99.90;;;;;;5100104;28;20291;-80
2021/04/24 06:43:46;;;;;;;0.87;0.57;;;11.60;99.90;;;;;;5104344;28;20633;-80
2021/04/24 06:46:11;;;;;;;0.90;0.40;;;11.40;99.90;;;;;;5101504;28;20310;-79
2021/04/24 06:48:37;;;;;;;0.50;0.50;;;11.50;99.90;;;;;;5103521;27;20184;-79
2021/04/24 06:51:03;;;;;;;1.27;1.10;;;11.50;99.90;;;;;;5097024;28;20211;-80
2021/04/24 06:53:28;;;;;;;0.43;0.33;;;11.60;99.90;;;;;;5101561;27;20183;-80
2021/04/24 06:55:55;;;;;;;0.60;0.60;;;11.70;99.90;;;;;;5104339;28;20199;-81
2021/04/24 06:58:21;;;;;;;1.47;0.60;;;11.50;99.90;;;;;;5116649;27;20245;-80
2021/04/24 07:00:47;;;;;;;0.77;0.43;;;11.60;99.90;;;;;;5101014;27;20612;-79
2021/04/24 07:03:13;;;;;;;0.93;0.93;;;12.00;99.90;;;;;;5108157;27;20275;-80
2021/04/24 07:05:38;;;;;;;0.77;0.30;;;12.20;99.90;;;;;;5099081;28;20629;-81
2021/04/24 07:08:04;;;;;;;0.30;0.30;;;12.60;99.90;;;;;;5096440;27;20195;-80
2021/04/24 07:10:30;;;;;;;0.77;0.57;;;12.60;99.90;;;;;;5094218;27;20285;-79
2021/04/24 07:12:55;;;;;;;1.00;0.60;;;12.20;99.90;;;;;;5091620;28;20199;-81
2021/04/24 07:15:21;;;;;;;1.20;1.13;;;12.50;99.90;;;;;;5102077;28;20222;-81
2021/04/24 07:17:47;;;;;;;0.63;0.63;;;12.70;99.90;;;;;;5101081;28;20188;-81
2021/04/24 07:20:13;;;;;;;0.30;0.30;;;12.80;99.90;;;;;;5093328;28;20219;-80
2021/04/24 07:22:39;;;;;;;0.70;0.60;;;12.80;99.90;;;;;;5091767;28;20192;-81
2021/04/24 07:25:07;;;;;;;0.87;0.87;;;12.90;99.90;;;;;;5093304;28;20704;-81
2021/04/24 07:27:33;;;;;;;0.53;0.53;;;13.40;99.90;;;;;;5110803;27;20212;-81
2021/04/24 07:29:59;;;;;;;3.77;1.57;;;13.60;99.90;;;;;;5092010;28;20319;-81
2021/04/24 07:32:25;;;;;;;0.40;0.40;;;13.50;99.90;;;;;;5092533;28;20560;-81
2021/04/24 07:34:51;;;;;;;0.93;0.80;;;12.80;99.90;;;;;;5101041;28;20180;-81
2021/04/24 07:37:16;;;;;;;0.90;0.60;;;13.10;99.90;;;;;;5124085;27;20255;-80
2021/04/24 07:39:42;;;;;;;0.67;0.67;;;13.40;99.90;;;;;;5092275;28;20619;-81
2021/04/24 07:42:07;;;;;;;0.87;0.50;;;13.40;99.90;;;;;;5095054;28;20267;-80
2021/04/24 07:44:37;;;;;;;0.47;0.40;;;13.30;99.90;;;;;;5102255;28;20204;-81
2021/04/24 07:47:03;;;;;;;0.90;0.77;;;13.30;99.90;;;;;;5113642;28;20171;-80
2021/04/24 07:49:28;;;;;;;1.10;0.97;;;13.70;99.90;;;;;;5112844;28;20228;-82
2021/04/24 07:51:54;;;;;;;1.23;0.60;;;13.80;99.90;;;;;;5110613;28;20181;-81
2021/04/24 07:54:19;;;;;;;1.60;0.80;;;13.80;99.90;;;;;;5101449;28;20249;-81
2021/04/24 07:56:45;;;;;;;0.70;0.50;;;13.80;99.90;;;;;;5104486;28;20521;-80
2021/04/24 07:59:11;;;;;;;0.53;0.53;;;13.80;99.90;;;;;;5092769;28;20665;-81
2021/04/24 08:01:40;;;;;;;1.80;1.17;;;14.00;99.90;;;;;;5108894;27;20229;-81
2021/04/24 08:04:06;;;;;;;0.63;0.63;;;14.40;99.90;;;;;;5099386;28;20673;-81
2021/04/24 08:06:34;;;;;;;0.30;0.30;;;14.50;99.90;;;;;;5097099;28;20219;-81
2021/04/24 08:09:00;;;;;;;1.30;1.20;;;14.30;99.90;;;;;;5091264;28;20674;-81
2021/04/24 08:11:25;;;;;;;1.63;1.10;;;13.80;99.90;;;;;;5111952;27;20224;-81
2021/04/24 08:13:51;;;;;;;1.20;0.83;;;13.60;99.90;;;;;;5090165;28;20739;-80
2021/04/24 08:16:17;;;;;;;1.73;1.00;;;13.90;99.90;;;;;;5104192;28;20185;-81
2021/04/24 08:18:42;;;;;;;0.63;0.60;;;13.60;99.90;;;;;;5094950;28;20180;-80
2021/04/24 08:21:08;;;;;;;1.97;1.23;;;13.80;99.90;;;;;;5113367;28;20222;-80
2021/04/24 08:23:34;;;;;;;0.60;0.60;;;13.20;99.90;;;;;;5090072;28;20664;-81
2021/04/24 08:25:59;;;;;;;0.93;0.90;;;13.40;99.90;;;;;;5095702;28;22744;-81
2021/04/24 08:28:25;;;;;;;1.30;0.67;;;13.40;99.90;;;;;;5092872;28;20195;-81
2021/04/24 08:30:50;;;;;;;0.50;0.50;;;13.60;99.90;;;;;;5102585;28;20257;-81
2021/04/24 08:33:16;;;;;;;1.00;1.00;;;14.10;99.90;;;;;;5089025;28;20190;-80
2021/04/24 08:35:43;;;;;;;1.70;0.93;;;14.30;99.90;;;;;;5091810;28;20274;-82
2021/04/24 08:38:08;;;;;;;0.80;0.80;;;13.80;99.90;;;;;;5092824;28;20276;-82
2021/04/24 08:40:34;;;;;;;5.20;1.27;;;14.10;99.90;;;;;;5091813;28;20292;-83
2021/04/24 08:43:02;;;;;;;1.30;0.90;;;14.10;99.90;;;;;;5103596;28;20621;-84
2021/04/24 08:45:29;;;;;;;0.37;0.37;;;14.20;99.90;;;;;;5100109;28;20697;-84
2021/04/24 08:47:55;;;;;;;3.27;1.47;;;14.70;99.90;;;;;;5094752;28;20188;-83
2021/04/24 08:50:27;;;;;;;0.67;0.67;;;14.30;99.90;;;;;;5089912;28;20203;-81
2021/04/24 08:52:53;;;;;;;1.17;0.53;;;14.30;99.90;;;;;;5110401;28;20321;-81
2021/04/24 08:55:22;;;;;;;0.70;0.70;;;14.40;99.90;;;;;;5097458;28;20931;-81
2021/04/24 08:57:49;;;;;;;1.03;0.87;;;14.90;99.90;;;;;;5096959;28;20656;-81
2021/04/24 09:00:16;;;;;;;0.70;0.70;;;14.60;99.90;;;;;;5102042;28;20277;-81
2021/04/24 09:02:44;;;;;;;0.37;0.37;;;14.40;99.90;;;;;;5115728;27;20206;-80
2021/04/24 09:05:12;;;;;;;1.07;0.73;;;14.60;99.90;;;;;;5104491;28;20213;-79
2021/04/24 09:07:38;;;;;;;1.60;1.20;;;14.70;99.90;;;;;;5114965;28;20186;-81
2021/04/24 09:10:04;;;;;;;1.10;0.63;;;14.70;99.90;;;;;;5100347;28;20583;-81
2021/04/24 09:12:34;;;;;;;1.13;0.73;;;14.80;99.90;;;;;;5117377;27;20187;-82
2021/04/24 09:15:26;;;;;;;0.60;0.60;;;15.40;99.90;;;;;;5098417;28;20194;-80
2021/04/24 09:17:58;;;;;;;0.97;0.93;;;15.40;99.90;;;;;;5105634;28;20214;-81
2021/04/24 09:20:26;;;;;;;1.00;0.70;;;15.60;99.90;;;;;;5102775;28;20215;-81
2021/04/24 09:23:02;;;;;;;1.43;0.80;;;15.60;99.90;;;;;;5113669;27;20191;-80
2021/04/24 09:25:32;;;;;;;1.57;1.47;;;15.30;99.90;;;;;;5101790;27;20209;-81
2021/04/24 09:27:58;;;;;;;2.47;0.80;;;15.70;99.90;;;;;;5110780;27;20271;-80
2021/04/24 09:30:30;;;;;;;0.70;0.53;;;15.80;99.90;;;;;;5107447;28;20238;-81
2021/04/24 09:33:06;;;;;;;3.03;0.90;;;15.50;99.90;;;;;;5103657;28;20272;-81
2021/04/24 09:35:53;;;;;;;1.23;1.00;;;15.60;99.90;;;;;;5110066;28;20213;-81
2021/04/24 09:38:22;;;;;;;1.10;1.00;;;15.90;99.90;;;;;;5109667;28;20190;-80
2021/04/24 09:41:12;;;;;;;1.00;1.00;;;16.10;99.90;;;;;;5111411;27;20208;-81
2021/04/24 09:43:46;;;;;;;0.60;0.60;;;16.20;99.90;;;;;;5099496;28;20263;-81
2021/04/24 09:46:15;;;;;;;1.70;0.37;;;16.90;99.90;;;;;;5114416;28;20217;-81
2021/04/24 09:48:41;;;;;;;1.40;0.60;;;17.40;99.90;;;;;;5107373;28;20188;-81
2021/04/24 09:51:18;;;;;;;3.47;1.40;;;17.20;99.90;;;;;;5099125;28;20208;-81
2021/04/24 09:53:58;;;;;;;0.83;0.77;;;16.40;99.90;;;;;;5114727;28;20181;-79
2021/04/24 09:56:27;;;;;;;0.70;0.70;;;16.90;99.90;;;;;;5108395;28;20696;-81
2021/04/24 09:59:04;;;;;;;0.60;0.60;;;17.40;99.90;;;;;;5094589;28;20560;-81
2021/04/24 10:01:31;;;;;;;1.37;1.00;;;17.00;99.90;;;;;;5103657;27;20217;-81
2021/04/24 10:03:58;;;;;;;1.80;0.70;;;16.80;99.90;;;;;;5109497;27;20220;-81
2021/04/24 10:06:43;;;;;;;2.43;1.10;;;16.80;99.90;;;;;;5103384;28;20199;-81
2021/04/24 10:09:23;;;;;;;2.03;1.23;;;16.60;99.90;;;;;;5100190;28;20206;-81
2021/04/24 10:12:04;;;;;;;1.03;0.87;;;16.60;99.90;;;;;;5120119;27;20211;-80
2021/04/24 10:14:34;;;;;;;1.13;1.13;;;17.10;99.90;;;;;;5106889;28;20184;-80
2021/04/24 10:17:03;;;;;;;0.80;0.80;;;17.10;99.90;;;;;;5110850;28;20184;-81
2021/04/24 10:19:30;;;;;;;0.40;0.40;;;17.10;99.90;;;;;;5099644;28;20660;-81
2021/04/24 10:21:56;;;;;;;1.50;1.33;;;17.50;99.90;;;;;;5113959;28;20616;-80
2021/04/24 10:24:24;;;;;;;1.00;1.00;;;17.00;99.90;;;;;;5097408;28;20204;-81
2021/04/24 10:26:50;;;;;;;2.10;0.73;;;16.90;99.90;;;;;;5098788;27;20269;-80
2021/04/24 10:29:17;;;;;;;3.43;1.47;;;17.10;99.90;;;;;;5099813;27;20271;-80
2021/04/24 10:31:43;;;;;;;0.80;0.60;;;16.00;99.90;;;;;;5105266;27;20198;-81
2021/04/24 10:34:09;;;;;;;2.97;1.47;;;16.40;99.90;;;;;;5105717;27;20292;-81
2021/04/24 10:36:36;;;;;;;1.00;0.90;;;16.90;99.90;;;;;;5106757;27;20195;-81
2021/04/24 10:39:10;;;;;;;0.90;0.90;;;17.50;99.90;;;;;;5099792;28;20658;-81
2021/04/24 10:41:41;;;;;;;2.60;1.77;;;17.30;99.90;;;;;;5101347;28;20220;-80
2021/04/24 10:44:14;;;;;;;0.53;0.53;;;17.40;99.90;;;;;;5104526;27;20191;-80
2021/04/24 10:46:54;;;;;;;0.67;0.67;;;18.00;99.90;;;;;;5104511;27;20199;-81
2021/04/24 10:49:27;;;;;;;1.03;0.93;;;17.10;99.90;;;;;;5102472;28;20186;-81
2021/04/24 10:52:18;;;;;;;0.93;0.87;;;17.90;99.90;;;;;;5103020;28;20229;-80
2021/04/24 10:55:16;;;;;;;0.93;0.70;;;18.50;99.90;;;;;;5104418;28;20191;-81
2021/04/24 10:57:55;;;;;;;1.67;1.37;;;18.50;99.90;;;;;;5107453;27;20178;-78
2021/04/24 11:00:33;;;;;;;1.40;0.73;;;18.20;99.90;;;;;;5101473;28;20196;-80
2021/04/24 11:03:00;;;;;;;6.27;2.60;;;17.20;99.90;;;;;;5097180;27;20267;-81
2021/04/24 11:05:31;;;;;;;1.70;0.90;;;16.70;99.90;;;;;;5096787;27;20582;-80
2021/04/24 11:08:20;;;;;;;1.17;0.70;;;17.50;99.90;;;;;;5093157;28;20661;-81
2021/04/24 11:11:02;;;;;;;0.97;0.93;;;18.00;99.90;;;;;;5116990;27;20198;-81
2021/04/24 11:13:43;;;;;;;1.30;1.20;;;18.00;99.90;;;;;;5101671;27;20576;-82
2021/04/24 11:16:12;;;;;;;1.03;1.00;;;17.20;99.90;;;;;;5096019;28;20217;-82
2021/04/24 11:18:39;;;;;;;6.47;1.30;;;17.60;99.90;;;;;;5108650;28;20192;-80
2021/04/24 11:21:10;;;;;;;0.87;0.87;;;18.10;99.90;;;;;;5099248;28;20239;-81
2021/04/24 11:23:38;;;;;;;2.77;1.47;;;17.90;99.90;;;;;;5102541;28;20682;-81
2021/04/24 11:26:09;;;;;;;3.97;1.27;;;17.70;99.90;;;;;;5106638;28;20211;-82
2021/04/24 11:28:54;;;;;;;1.70;1.03;;;17.40;99.90;;;;;;5100544;27;20641;-82
2021/04/24 11:31:46;;;;;;;2.70;1.97;;;17.20;99.90;;;;;;5094412;28;20710;-81
2021/04/24 11:34:29;;;;;;;2.63;0.77;;;18.00;99.90;;;;;;5099624;28;20680;-82
2021/04/24 11:37:24;;;;;;;0.87;0.40;;;17.60;99.90;;;;;;5093729;28;20184;-81
2021/04/24 11:40:08;;;;;;;5.73;1.27;;;17.50;99.90;;;;;;5096053;28;20206;-81
2021/04/24 11:42:37;;;;;;;3.23;1.63;;;18.20;99.90;;;;;;5091308;28;20559;-81
2021/04/24 11:45:15;;;;;;;1.30;1.20;;;17.70;99.90;;;;;;5127044;27;20208;-80
2021/04/24 11:47:43;;;;;;;1.30;1.17;;;18.10;99.90;;;;;;5095983;27;20187;-80
2021/04/24 11:50:10;;;;;;;3.17;1.13;;;17.70;99.90;;;;;;5107507;28;20555;-81
2021/04/24 11:52:36;;;;;;;1.63;1.00;;;18.00;99.90;;;;;;5093476;28;20249;-82
2021/04/24 11:55:03;;;;;;;2.07;1.10;;;18.40;99.90;;;;;;5112734;28;20190;-81
2021/04/24 11:57:28;;;;;;;0.77;0.73;;;18.60;99.90;;;;;;5100008;28;20249;-80
2021/04/24 11:59:54;;;;;;;0.63;0.63;;;17.90;99.90;;;;;;5098125;28;20215;-82
2021/04/24 12:02:28;;;;;;;0.90;0.90;;;18.10;99.90;;;;;;5099384;28;20672;-82
2021/04/24 12:05:09;;;;;;;2.43;0.83;;;18.50;99.90;;;;;;5101134;28;20210;-82
2021/04/24 12:07:40;;;;;;;0.53;0.50;;;18.20;99.90;;;;;;5104491;27;20175;-81
2021/04/24 12:10:06;;;;;;;2.03;1.10;;;18.60;99.90;;;;;;5099385;28;20235;-81
2021/04/24 12:12:34;;;;;;;1.70;0.97;;;18.30;99.90;;;;;;5101914;27;20593;-82
2021/04/24 12:15:04;;;;;;;0.90;0.70;;;17.80;99.90;;;;;;5107788;28;20587;-81
2021/04/24 12:17:29;;;;;;;0.40;0.40;;;18.30;99.90;;;;;;5102632;28;20313;-81
2021/04/24 12:19:55;;;;;;;2.93;2.20;;;18.00;99.90;;;;;;5102288;28;20693;-82
2021/04/24 12:22:22;;;;;;;1.50;0.87;;;17.60;99.90;;;;;;5100535;28;20190;-82
2021/04/24 12:24:58;;;;;;;0.63;0.63;;;17.90;99.90;;;;;;5098132;28;20320;-81
2021/04/24 12:27:28;;;;;;;3.50;1.33;;;18.30;99.90;;;;;;5107024;28;20190;-82
2021/04/24 12:29:54;;;;;;;1.20;1.17;;;17.10;99.90;;;;;;5121125;28;20206;-80
2021/04/24 12:32:22;;;;;;;1.57;0.80;;;17.00;99.90;;;;;;5100313;28;20277;-81
2021/04/24 12:34:48;;;;;;;1.50;1.00;;;17.70;99.90;;;;;;5110969;28;20213;-80
2021/04/24 12:37:18;;;;;;;1.30;1.20;;;18.30;99.90;;;;;;5107685;28;20176;-79
2021/04/24 12:39:44;;;;;;;0.70;0.57;;;18.00;99.90;;;;;;5099187;28;20182;-80
2021/04/24 12:42:11;;;;;;;0.57;0.57;;;18.00;99.90;;;;;;5105287;28;20196;-80
2021/04/24 12:44:39;;;;;;;0.70;0.70;;;18.50;99.90;;;;;;5108612;28;20189;-82
2021/04/24 12:47:06;;;;;;;2.67;1.13;;;18.90;99.90;;;;;;5100680;28;20191;-81
2021/04/24 12:49:32;;;;;;;5.90;1.00;;;18.80;99.90;;;;;;5123326;27;20187;-81
2021/04/24 12:52:06;;;;;;;0.97;0.97;;;19.20;99.90;;;;;;5108567;28;20673;-81
2021/04/24 12:54:32;;;;;;;1.53;1.43;;;18.90;99.90;;;;;;5108578;28;20259;-82
2021/04/24 12:57:19;;;;;;;0.60;0.60;;;18.60;99.90;;;;;;5107876;28;20829;-81